sensor_id;sensor_type;location;lat;lon;timestamp;pressure;altitude;pressure_sealevel;temperature;humidity
60871;BME280;46714;50.118;14.462;2024-03-17T00:00:22;99581.41;;;4.77;100.00
60871;BME280;46714;50.118;14.462;2024-03-17T00:02:48;99580.75;;;4.75;100.00
60871;BME280;46714;50.118;14.462;2024-03-17T00:05:14;99578.53;;;4.71;100.00
60871;BME280;46714;50.118;14.462;2024-03-17T00:07:39;99569.94;;;4.67;100.00
60871;BME280;46714;50.118;14.462;2024-03-17T00:10:05;99570.44;;;4.62;100.00
60871;BME280;46714;50.118;14.462;2024-03-17T00:12:34;99567.06;;;4.52;100.00
60871;BME280;46714;50.118;14.462;2024-03-17T00:14:59;99569.72;;;4.44;100.00
60871;BME280;46714;50.118;14.462;2024-03-17T00:17:25;99572.91;;;4.39;100.00
60871;BME280;46714;50.118;14.462;2024-03-17T00:19:50;99571.88;;;4.32;100.00
60871;BME280;46714;50.118;14.462;2024-03-17T00:22:15;99572.19;;;4.21;100.00
60871;BME280;46714;50.118;14.462;2024-03-17T00:24:42;99576.41;;;4.15;100.00
60871;BME280;46714;50.118;14.462;2024-03-17T00:27:08;99578.91;;;4.09;100.00
60871;BME280;46714;50.118;14.462;2024-03-17T00:29:34;99579.38;;;4.04;100.00
60871;BME280;46714;50.118;14.462;2024-03-17T00:31:59;99580.88;;;3.98;100.00
60871;BME280;46714;50.118;14.462;2024-03-17T00:34:25;99581.53;;;3.92;100.00
60871;BME280;46714;50.118;14.462;2024-03-17T00:36:50;99581.47;;;3.84;100.00
60871;BME280;46714;50.118;14.462;2024-03-17T00:39:16;99583.66;;;3.81;100.00
60871;BME280;46714;50.118;14.462;2024-03-17T00:41:42;99590.22;;;3.78;100.00
60871;BME280;46714;50.118;14.462;2024-03-17T00:44:08;99582.63;;;3.73;100.00
60871;BME280;46714;50.118;14.462;2024-03-17T00:46:33;99579.41;;;3.70;100.00
60871;BME280;46714;50.118;14.462;2024-03-17T00:48:59;99579.03;;;3.65;100.00
60871;BME280;46714;50.118;14.462;2024-03-17T00:51:27;99573.28;;;3.60;100.00
60871;BME280;46714;50.118;14.462;2024-03-17T00:53:53;99576.97;;;3.59;100.00
60871;BME280;46714;50.118;14.462;2024-03-17T00:56:18;99570.75;;;3.58;100.00
60871;BME280;46714;50.118;14.462;2024-03-17T00:58:44;99573.47;;;3.58;100.00
60871;BME280;46714;50.118;14.462;2024-03-17T01:01:12;99586.22;;;3.56;100.00
60871;BME280;46714;50.118;14.462;2024-03-17T01:03:37;99588.22;;;3.54;100.00
60871;BME280;46714;50.118;14.462;2024-03-17T01:06:03;99578.47;;;3.53;100.00
60871;BME280;46714;50.118;14.462;2024-03-17T01:08:29;99572.72;;;3.48;100.00
60871;BME280;46714;50.118;14.462;2024-03-17T01:10:55;99582.97;;;3.44;100.00
60871;BME280;46714;50.118;14.462;2024-03-17T01:13:20;99585.13;;;3.41;100.00
60871;BME280;46714;50.118;14.462;2024-03-17T01:15:45;99571.97;;;3.38;100.00
60871;BME280;46714;50.118;14.462;2024-03-17T01:18:17;99577.69;;;3.34;100.00
60871;BME280;46714;50.118;14.462;2024-03-17T01:20:42;99581.38;;;3.33;100.00
60871;BME280;46714;50.118;14.462;2024-03-17T01:23:07;99581.69;;;3.30;100.00
60871;BME280;46714;50.118;14.462;2024-03-17T01:25:33;99581.69;;;3.30;100.00
60871;BME280;46714;50.118;14.462;2024-03-17T01:28:02;99577.09;;;3.23;100.00
60871;BME280;46714;50.118;14.462;2024-03-17T01:30:29;99576.09;;;3.24;100.00
60871;BME280;46714;50.118;14.462;2024-03-17T01:32:54;99582.66;;;3.21;100.00
60871;BME280;46714;50.118;14.462;2024-03-17T01:35:20;99579.25;;;3.19;100.00
60871;BME280;46714;50.118;14.462;2024-03-17T01:37:45;99574.19;;;3.16;100.00
60871;BME280;46714;50.118;14.462;2024-03-17T01:40:11;99582.41;;;3.14;100.00
60871;BME280;46714;50.118;14.462;2024-03-17T01:42:40;99579.03;;;3.12;100.00
60871;BME280;46714;50.118;14.462;2024-03-17T01:47:53;99566.06;;;3.08;100.00
60871;BME280;46714;50.118;14.462;2024-03-17T01:50:19;99568.22;;;3.04;100.00
60871;BME280;46714;50.118;14.462;2024-03-17T01:52:51;99562.13;;;3.02;100.00
60871;BME280;46714;50.118;14.462;2024-03-17T01:55:18;99563.00;;;3.03;100.00
60871;BME280;46714;50.118;14.462;2024-03-17T01:57:44;99566.00;;;3.00;100.00
60871;BME280;46714;50.118;14.462;2024-03-17T02:00:10;99567.84;;;2.99;100.00
60871;BME280;46714;50.118;14.462;2024-03-17T02:02:37;99569.69;;;2.99;100.00
60871;BME280;46714;50.118;14.462;2024-03-17T02:05:03;99574.22;;;2.98;100.00
60871;BME280;46714;50.118;14.462;2024-03-17T02:07:29;99573.38;;;2.98;100.00
60871;BME280;46714;50.118;14.462;2024-03-17T02:09:58;99567.31;;;2.96;100.00
60871;BME280;46714;50.118;14.462;2024-03-17T02:12:24;99565.75;;;2.93;100.00
60871;BME280;46714;50.118;14.462;2024-03-17T02:14:50;99572.84;;;2.94;100.00
60871;BME280;46714;50.118;14.462;2024-03-17T02:17:16;99581.91;;;2.93;100.00
60871;BME280;46714;50.118;14.462;2024-03-17T02:19:41;99575.69;;;2.92;100.00
60871;BME280;46714;50.118;14.462;2024-03-17T02:22:13;99574.00;;;2.91;100.00
60871;BME280;46714;50.118;14.462;2024-03-17T02:24:40;99577.69;;;2.90;100.00
60871;BME280;46714;50.118;14.462;2024-03-17T02:27:06;99575.00;;;2.90;100.00
60871;BME280;46714;50.118;14.462;2024-03-17T02:29:31;99575.16;;;2.89;100.00
60871;BME280;46714;50.118;14.462;2024-03-17T02:31:56;99579.69;;;2.88;100.00
60871;BME280;46714;50.118;14.462;2024-03-17T02:34:22;99581.00;;;2.84;100.00
60871;BME280;46714;50.118;14.462;2024-03-17T02:36:47;99582.81;;;2.84;100.00
60871;BME280;46714;50.118;14.462;2024-03-17T02:39:12;99589.38;;;2.81;100.00
60871;BME280;46714;50.118;14.462;2024-03-17T02:41:59;99579.44;;;2.82;100.00
60871;BME280;46714;50.118;14.462;2024-03-17T02:44:29;99577.63;;;2.82;100.00
60871;BME280;46714;50.118;14.462;2024-03-17T02:46:55;99582.31;;;2.80;100.00
60871;BME280;46714;50.118;14.462;2024-03-17T02:49:21;99583.28;;;2.79;100.00
60871;BME280;46714;50.118;14.462;2024-03-17T02:51:47;99588.53;;;2.81;100.00
60871;BME280;46714;50.118;14.462;2024-03-17T02:54:12;99583.84;;;2.83;100.00
60871;BME280;46714;50.118;14.462;2024-03-17T02:56:38;99586.53;;;2.83;100.00
60871;BME280;46714;50.118;14.462;2024-03-17T02:59:03;99586.84;;;2.80;100.00
60871;BME280;46714;50.118;14.462;2024-03-17T03:01:28;99578.94;;;2.78;100.00
60871;BME280;46714;50.118;14.462;2024-03-17T03:03:54;99586.31;;;2.76;100.00
60871;BME280;46714;50.118;14.462;2024-03-17T03:06:19;99581.06;;;2.75;100.00
60871;BME280;46714;50.118;14.462;2024-03-17T03:08:45;99570.50;;;2.73;100.00
60871;BME280;46714;50.118;14.462;2024-03-17T03:11:14;99576.34;;;2.68;100.00
60871;BME280;46714;50.118;14.462;2024-03-17T03:13:42;99572.41;;;2.63;100.00
60871;BME280;46714;50.118;14.462;2024-03-17T03:16:11;99571.69;;;2.61;100.00
60871;BME280;46714;50.118;14.462;2024-03-17T03:18:39;99570.63;;;2.54;100.00
60871;BME280;46714;50.118;14.462;2024-03-17T03:21:05;99571.94;;;2.49;100.00
60871;BME280;46714;50.118;14.462;2024-03-17T03:23:31;99573.63;;;2.50;100.00
60871;BME280;46714;50.118;14.462;2024-03-17T03:25:57;99573.09;;;2.47;100.00
60871;BME280;46714;50.118;14.462;2024-03-17T03:28:23;99576.78;;;2.46;100.00
60871;BME280;46714;50.118;14.462;2024-03-17T03:30:49;99576.22;;;2.42;100.00
60871;BME280;46714;50.118;14.462;2024-03-17T03:33:14;99570.16;;;2.40;100.00
60871;BME280;46714;50.118;14.462;2024-03-17T03:35:40;99571.31;;;2.38;100.00
60871;BME280;46714;50.118;14.462;2024-03-17T03:38:05;99569.78;;;2.35;100.00
60871;BME280;46714;50.118;14.462;2024-03-17T03:40:31;99567.53;;;2.30;100.00
60871;BME280;46714;50.118;14.462;2024-03-17T03:42:57;99569.72;;;2.27;100.00
60871;BME280;46714;50.118;14.462;2024-03-17T03:45:23;99569.72;;;2.27;100.00
60871;BME280;46714;50.118;14.462;2024-03-17T03:47:49;99571.84;;;2.23;100.00
60871;BME280;46714;50.118;14.462;2024-03-17T03:50:15;99563.66;;;2.25;100.00
60871;BME280;46714;50.118;14.462;2024-03-17T03:52:42;99571.00;;;2.23;100.00
60871;BME280;46714;50.118;14.462;2024-03-17T03:55:08;99575.38;;;2.24;100.00
60871;BME280;46714;50.118;14.462;2024-03-17T03:57:40;99571.69;;;2.25;100.00
60871;BME280;46714;50.118;14.462;2024-03-17T04:00:11;99570.00;;;2.24;100.00
60871;BME280;46714;50.118;14.462;2024-03-17T04:02:43;99572.16;;;2.20;100.00
60871;BME280;46714;50.118;14.462;2024-03-17T04:05:09;99574.28;;;2.17;100.00
60871;BME280;46714;50.118;14.462;2024-03-17T04:07:35;99567.50;;;2.13;100.00
60871;BME280;46714;50.118;14.462;2024-03-17T04:10:04;99565.00;;;2.11;100.00
60871;BME280;46714;50.118;14.462;2024-03-17T04:12:29;99565.44;;;2.06;100.00
60871;BME280;46714;50.118;14.462;2024-03-17T04:14:56;99564.75;;;2.04;100.00
60871;BME280;46714;50.118;14.462;2024-03-17T04:17:22;99566.59;;;2.04;100.00
60871;BME280;46714;50.118;14.462;2024-03-17T04:19:51;99572.13;;;2.02;100.00
60871;BME280;46714;50.118;14.462;2024-03-17T04:22:17;99573.97;;;2.02;100.00
60871;BME280;46714;50.118;14.462;2024-03-17T04:24:44;99572.25;;;2.01;100.00
60871;BME280;46714;50.118;14.462;2024-03-17T04:27:13;99581.75;;;1.95;100.00
60871;BME280;46714;50.118;14.462;2024-03-17T04:29:39;99576.53;;;1.94;100.00
60871;BME280;46714;50.118;14.462;2024-03-17T04:32:05;99589.13;;;1.93;100.00
60871;BME280;46714;50.118;14.462;2024-03-17T04:34:31;99587.72;;;1.89;100.00
60871;BME280;46714;50.118;14.462;2024-03-17T04:36:57;99582.22;;;1.91;100.00
60871;BME280;46714;50.118;14.462;2024-03-17T04:39:23;99583.56;;;1.95;100.00
60871;BME280;46714;50.118;14.462;2024-03-17T04:41:49;99575.69;;;1.93;100.00
60871;BME280;46714;50.118;14.462;2024-03-17T04:44:15;99578.81;;;1.88;100.00
60871;BME280;46714;50.118;14.462;2024-03-17T04:46:41;99591.41;;;1.88;100.00
60871;BME280;46714;50.118;14.462;2024-03-17T04:49:06;99576.28;;;1.87;100.00
60871;BME280;46714;50.118;14.462;2024-03-17T04:51:31;99580.13;;;1.84;100.00
60871;BME280;46714;50.118;14.462;2024-03-17T04:54:00;99582.41;;;1.79;100.00
60871;BME280;46714;50.118;14.462;2024-03-17T04:56:28;99587.38;;;1.74;100.00
60871;BME280;46714;50.118;14.462;2024-03-17T04:58:53;99581.69;;;1.77;100.00
60871;BME280;46714;50.118;14.462;2024-03-17T05:01:19;99585.53;;;1.75;100.00
60871;BME280;46714;50.118;14.462;2024-03-17T05:03:45;99590.50;;;1.70;100.00
60871;BME280;46714;50.118;14.462;2024-03-17T05:06:10;99585.28;;;1.68;100.00
60871;BME280;46714;50.118;14.462;2024-03-17T05:08:35;99595.31;;;1.66;100.00
60871;BME280;46714;50.118;14.462;2024-03-17T05:11:04;99595.44;;;1.64;100.00
60871;BME280;46714;50.118;14.462;2024-03-17T05:13:34;99600.09;;;1.62;100.00
60871;BME280;46714;50.118;14.462;2024-03-17T05:16:01;99606.34;;;1.63;100.00
60871;BME280;46714;50.118;14.462;2024-03-17T05:18:28;99607.19;;;1.63;100.00
60871;BME280;46714;50.118;14.462;2024-03-17T05:20:58;99609.72;;;1.65;100.00
60871;BME280;46714;50.118;14.462;2024-03-17T05:23:28;99608.84;;;1.64;100.00
60871;BME280;46714;50.118;14.462;2024-03-17T05:25:55;99609.56;;;1.66;100.00
60871;BME280;46714;50.118;14.462;2024-03-17T05:28:25;99603.22;;;1.67;100.00
60871;BME280;46714;50.118;14.462;2024-03-17T05:30:52;99607.72;;;1.67;100.00
60871;BME280;46714;50.118;14.462;2024-03-17T05:33:18;99611.09;;;1.69;100.00
60871;BME280;46714;50.118;14.462;2024-03-17T05:35:52;99609.41;;;1.68;100.00
60871;BME280;46714;50.118;14.462;2024-03-17T05:38:20;99614.66;;;1.70;100.00
60871;BME280;46714;50.118;14.462;2024-03-17T05:40:53;99613.78;;;1.69;100.00
60871;BME280;46714;50.118;14.462;2024-03-17T05:43:25;99618.31;;;1.68;100.00
60871;BME280;46714;50.118;14.462;2024-03-17T05:45:56;99619.16;;;1.69;100.00
60871;BME280;46714;50.118;14.462;2024-03-17T05:48:22;99616.47;;;1.69;100.00
60871;BME280;46714;50.118;14.462;2024-03-17T05:50:49;99628.91;;;1.70;100.00
60871;BME280;46714;50.118;14.462;2024-03-17T05:53:16;99633.66;;;1.76;100.00
60871;BME280;46714;50.118;14.462;2024-03-17T05:55:43;99630.00;;;1.77;100.00
60871;BME280;46714;50.118;14.462;2024-03-17T05:58:08;99634.22;;;1.80;100.00
60871;BME280;46714;50.118;14.462;2024-03-17T06:00:37;99640.16;;;1.83;100.00
60871;BME280;46714;50.118;14.462;2024-03-17T06:03:04;99637.03;;;1.88;100.00
60871;BME280;46714;50.118;14.462;2024-03-17T06:05:34;99639.28;;;1.93;100.00
60871;BME280;46714;50.118;14.462;2024-03-17T06:08:03;99646.31;;;1.94;100.00
60871;BME280;46714;50.118;14.462;2024-03-17T06:10:30;99644.47;;;1.94;100.00
60871;BME280;46714;50.118;14.462;2024-03-17T06:12:56;99649.28;;;2.00;100.00
60871;BME280;46714;50.118;14.462;2024-03-17T06:15:22;99652.53;;;2.04;100.00
60871;BME280;46714;50.118;14.462;2024-03-17T06:17:49;99654.75;;;2.08;100.00
60871;BME280;46714;50.118;14.462;2024-03-17T06:20:17;99650.75;;;2.13;100.00
60871;BME280;46714;50.118;14.462;2024-03-17T06:22:43;99651.19;;;2.18;100.00
60871;BME280;46714;50.118;14.462;2024-03-17T06:25:08;99646.03;;;2.24;100.00
60871;BME280;46714;50.118;14.462;2024-03-17T06:27:34;99645.44;;;2.30;100.00
60871;BME280;46714;50.118;14.462;2024-03-17T06:30:00;99653.88;;;2.36;100.00
60871;BME280;46714;50.118;14.462;2024-03-17T06:32:29;99656.81;;;2.42;100.00
60871;BME280;46714;50.118;14.462;2024-03-17T06:34:56;99656.22;;;2.48;100.00
60871;BME280;46714;50.118;14.462;2024-03-17T06:37:21;99655.47;;;2.56;100.00
60871;BME280;46714;50.118;14.462;2024-03-17T06:39:48;99660.09;;;2.64;100.00
60871;BME280;46714;50.118;14.462;2024-03-17T06:42:13;99661.31;;;2.69;100.00
60871;BME280;46714;50.118;14.462;2024-03-17T06:44:39;99665.78;;;2.79;100.00
60871;BME280;46714;50.118;14.462;2024-03-17T06:47:04;99663.34;;;2.85;100.00
60871;BME280;46714;50.118;14.462;2024-03-17T06:49:30;99666.41;;;2.90;100.00
60871;BME280;46714;50.118;14.462;2024-03-17T06:51:56;99664.78;;;2.98;100.00
60871;BME280;46714;50.118;14.462;2024-03-17T06:54:21;99671.28;;;3.05;100.00
60871;BME280;46714;50.118;14.462;2024-03-17T06:56:47;99681.56;;;3.09;100.00
60871;BME280;46714;50.118;14.462;2024-03-17T06:59:12;99672.16;;;3.13;100.00
60871;BME280;46714;50.118;14.462;2024-03-17T07:01:37;99679.63;;;3.20;100.00
60871;BME280;46714;50.118;14.462;2024-03-17T07:04:03;99681.72;;;3.26;100.00
60871;BME280;46714;50.118;14.462;2024-03-17T07:06:28;99685.94;;;3.28;100.00
60871;BME280;46714;50.118;14.462;2024-03-17T07:08:54;99689.00;;;3.33;100.00
60871;BME280;46714;50.118;14.462;2024-03-17T07:11:20;99686.84;;;3.37;100.00
60871;BME280;46714;50.118;14.462;2024-03-17T07:13:48;99685.38;;;3.43;100.00
60871;BME280;46714;50.118;14.462;2024-03-17T07:16:16;99688.59;;;3.46;100.00
60871;BME280;46714;50.118;14.462;2024-03-17T07:18:43;99691.81;;;3.50;100.00
60871;BME280;46714;50.118;14.462;2024-03-17T07:21:08;99691.19;;;3.56;100.00
60871;BME280;46714;50.118;14.462;2024-03-17T07:23:35;99695.28;;;3.60;99.95
60871;BME280;46714;50.118;14.462;2024-03-17T07:26:02;99695.50;;;3.67;100.00
60871;BME280;46714;50.118;14.462;2024-03-17T07:28:29;99691.47;;;3.71;98.75
60871;BME280;46714;50.118;14.462;2024-03-17T07:30:56;99688.28;;;3.75;99.93
60871;BME280;46714;50.118;14.462;2024-03-17T07:33:23;99696.59;;;3.82;99.47
60871;BME280;46714;50.118;14.462;2024-03-17T07:35:49;99691.41;;;3.89;99.20
60871;BME280;46714;50.118;14.462;2024-03-17T07:38:16;99700.53;;;3.96;98.11
60871;BME280;46714;50.118;14.462;2024-03-17T07:40:43;99702.47;;;4.04;98.22
60871;BME280;46714;50.118;14.462;2024-03-17T07:43:09;99695.44;;;4.11;97.00
60871;BME280;46714;50.118;14.462;2024-03-17T07:45:35;99702.00;;;4.16;96.56
60871;BME280;46714;50.118;14.462;2024-03-17T07:48:00;99696.69;;;4.25;96.81
60871;BME280;46714;50.118;14.462;2024-03-17T07:50:25;99696.88;;;4.31;95.30
60871;BME280;46714;50.118;14.462;2024-03-17T07:52:51;99695.06;;;4.40;95.77
60871;BME280;46714;50.118;14.462;2024-03-17T07:55:17;99695.09;;;4.48;95.42
60871;BME280;46714;50.118;14.462;2024-03-17T07:57:42;99690.56;;;4.57;94.82
60871;BME280;46714;50.118;14.462;2024-03-17T08:00:08;99687.72;;;4.67;94.96
60871;BME280;46714;50.118;14.462;2024-03-17T08:02:46;99685.38;;;4.72;94.15
60871;BME280;46714;50.118;14.462;2024-03-17T08:05:11;99691.50;;;4.82;95.25
60871;BME280;46714;50.118;14.462;2024-03-17T08:07:37;99684.94;;;4.93;94.27
60871;BME280;46714;50.118;14.462;2024-03-17T08:10:02;99679.75;;;4.99;94.16
60871;BME280;46714;50.118;14.462;2024-03-17T08:12:28;99679.75;;;5.08;94.70
60871;BME280;46714;50.118;14.462;2024-03-17T08:14:54;99677.75;;;5.18;93.36
60871;BME280;46714;50.118;14.462;2024-03-17T08:17:20;99683.13;;;5.26;93.54
60871;BME280;46714;50.118;14.462;2024-03-17T08:19:45;99674.03;;;5.35;92.60
60871;BME280;46714;50.118;14.462;2024-03-17T08:22:10;99670.31;;;5.44;92.67
60871;BME280;46714;50.118;14.462;2024-03-17T08:24:36;99676.72;;;5.52;91.42
60871;BME280;46714;50.118;14.462;2024-03-17T08:27:01;99676.72;;;5.60;90.32
60871;BME280;46714;50.118;14.462;2024-03-17T08:29:26;99674.88;;;5.69;91.49
60871;BME280;46714;50.118;14.462;2024-03-17T08:31:52;99672.31;;;5.75;91.56
60871;BME280;46714;50.118;14.462;2024-03-17T08:34:18;99670.28;;;5.77;91.40
60871;BME280;46714;50.118;14.462;2024-03-17T08:36:43;99671.97;;;5.78;88.80
60871;BME280;46714;50.118;14.462;2024-03-17T08:39:08;99676.34;;;5.79;87.82
60871;BME280;46714;50.118;14.462;2024-03-17T08:41:36;99674.66;;;5.86;88.51
60871;BME280;46714;50.118;14.462;2024-03-17T08:44:01;99668.25;;;5.96;90.12
60871;BME280;46714;50.118;14.462;2024-03-17T08:46:27;99663.13;;;6.09;87.43
60871;BME280;46714;50.118;14.462;2024-03-17T08:48:52;99670.53;;;6.23;87.41
60871;BME280;46714;50.118;14.462;2024-03-17T08:51:18;99669.44;;;6.41;86.45
60871;BME280;46714;50.118;14.462;2024-03-17T08:53:43;99665.34;;;6.53;85.21
60871;BME280;46714;50.118;14.462;2024-03-17T08:56:08;99665.97;;;6.63;83.85
60871;BME280;46714;50.118;14.462;2024-03-17T08:58:34;99658.16;;;6.68;83.20
60871;BME280;46714;50.118;14.462;2024-03-17T09:01:03;99663.22;;;6.71;80.69
60871;BME280;46714;50.118;14.462;2024-03-17T09:03:32;99658.81;;;6.70;79.65
60871;BME280;46714;50.118;14.462;2024-03-17T09:06:01;99655.16;;;6.63;80.65
60871;BME280;46714;50.118;14.462;2024-03-17T09:08:26;99655.31;;;6.62;80.40
60871;BME280;46714;50.118;14.462;2024-03-17T09:10:53;99648.41;;;6.59;80.51
60871;BME280;46714;50.118;14.462;2024-03-17T09:13:20;99648.22;;;6.61;81.81
60871;BME280;46714;50.118;14.462;2024-03-17T09:18:30;99639.56;;;6.74;82.37
60871;BME280;46714;50.118;14.462;2024-03-17T09:21:00;99642.34;;;6.80;80.87
60871;BME280;46714;50.118;14.462;2024-03-17T09:23:26;99646.53;;;6.91;81.00
60871;BME280;46714;50.118;14.462;2024-03-17T09:26:02;99637.81;;;7.04;80.80
60871;BME280;46714;50.118;14.462;2024-03-17T09:28:36;99632.81;;;7.16;78.48
60871;BME280;46714;50.118;14.462;2024-03-17T09:31:02;99634.72;;;7.30;78.31
60871;BME280;46714;50.118;14.462;2024-03-17T09:33:28;99632.88;;;7.30;73.12
60871;BME280;46714;50.118;14.462;2024-03-17T09:35:55;99628.97;;;7.33;74.64
60871;BME280;46714;50.118;14.462;2024-03-17T09:38:22;99630.59;;;7.42;72.49
60871;BME280;46714;50.118;14.462;2024-03-17T09:40:47;99630.47;;;7.36;71.91
60871;BME280;46714;50.118;14.462;2024-03-17T09:43:22;99622.91;;;7.31;73.00
60871;BME280;46714;50.118;14.462;2024-03-17T09:45:50;99629.53;;;7.28;74.30
60871;BME280;46714;50.118;14.462;2024-03-17T09:48:27;99620.91;;;7.25;75.25
60871;BME280;46714;50.118;14.462;2024-03-17T09:50:54;99622.56;;;7.26;75.42
60871;BME280;46714;50.118;14.462;2024-03-17T09:55:51;99623.56;;;7.33;70.21
60871;BME280;46714;50.118;14.462;2024-03-17T09:58:24;99618.00;;;7.49;72.08
60871;BME280;46714;50.118;14.462;2024-03-17T10:00:49;99611.47;;;7.59;73.63
60871;BME280;46714;50.118;14.462;2024-03-17T10:06:09;99607.44;;;7.69;72.41
60871;BME280;46714;50.118;14.462;2024-03-17T10:08:49;99614.56;;;7.70;71.10
60871;BME280;46714;50.118;14.462;2024-03-17T10:11:19;99614.72;;;7.69;70.55
60871;BME280;46714;50.118;14.462;2024-03-17T10:13:59;99607.34;;;7.63;72.85
60871;BME280;46714;50.118;14.462;2024-03-17T10:16:37;99608.56;;;7.60;71.26
60871;BME280;46714;50.118;14.462;2024-03-17T10:21:48;99607.34;;;7.63;71.02
60871;BME280;46714;50.118;14.462;2024-03-17T10:24:24;99614.06;;;7.67;70.16
60871;BME280;46714;50.118;14.462;2024-03-17T10:26:52;99611.91;;;7.62;68.38
60871;BME280;46714;50.118;14.462;2024-03-17T10:29:28;99612.97;;;7.61;66.12
60871;BME280;46714;50.118;14.462;2024-03-17T10:31:57;99609.31;;;7.69;66.62
60871;BME280;46714;50.118;14.462;2024-03-17T10:34:28;99613.34;;;7.73;65.58
60871;BME280;46714;50.118;14.462;2024-03-17T10:39:57;99618.31;;;7.84;63.26
60871;BME280;46714;50.118;14.462;2024-03-17T10:42:25;99615.59;;;7.84;64.07
60871;BME280;46714;50.118;14.462;2024-03-17T10:45:00;99613.91;;;7.83;63.33
60871;BME280;46714;50.118;14.462;2024-03-17T10:47:32;99607.84;;;7.81;63.30
60871;BME280;46714;50.118;14.462;2024-03-17T10:49:59;99606.75;;;7.90;64.97
60871;BME280;46714;50.118;14.462;2024-03-17T10:52:28;99605.97;;;7.82;63.01
60871;BME280;46714;50.118;14.462;2024-03-17T10:54:58;99605.59;;;7.85;64.52
60871;BME280;46714;50.118;14.462;2024-03-17T11:00:05;99601.66;;;7.87;63.78
60871;BME280;46714;50.118;14.462;2024-03-17T11:02:33;99599.44;;;7.91;64.80
60871;BME280;46714;50.118;14.462;2024-03-17T11:05:04;99605.41;;;8.01;63.35
60871;BME280;46714;50.118;14.462;2024-03-17T11:07:33;99608.94;;;8.02;61.84
60871;BME280;46714;50.118;14.462;2024-03-17T11:10:02;99604.41;;;8.02;61.60
60871;BME280;46714;50.118;14.462;2024-03-17T11:12:42;99601.47;;;8.04;62.05
60871;BME280;46714;50.118;14.462;2024-03-17T11:17:50;99591.63;;;8.32;61.13
60871;BME280;46714;50.118;14.462;2024-03-17T11:20:29;99583.88;;;8.44;61.18
60871;BME280;46714;50.118;14.462;2024-03-17T11:22:58;99590.13;;;8.45;60.76
60871;BME280;46714;50.118;14.462;2024-03-17T11:27:52;99583.00;;;8.58;61.00
60871;BME280;46714;50.118;14.462;2024-03-17T11:46:54;99550.47;;;8.80;58.05
60871;BME280;46714;50.118;14.462;2024-03-17T11:49:43;99556.84;;;8.94;56.04
60871;BME280;46714;50.118;14.462;2024-03-17T11:52:10;99553.94;;;8.95;56.34
60871;BME280;46714;50.118;14.462;2024-03-17T11:54:38;99553.81;;;8.82;55.52
60871;BME280;46714;50.118;14.462;2024-03-17T11:57:05;99558.28;;;8.68;56.69
60871;BME280;46714;50.118;14.462;2024-03-17T11:59:33;99551.72;;;8.63;57.34
60871;BME280;46714;50.118;14.462;2024-03-17T12:01:59;99548.84;;;8.64;56.89
60871;BME280;46714;50.118;14.462;2024-03-17T12:04:25;99549.75;;;8.71;56.34
60871;BME280;46714;50.118;14.462;2024-03-17T12:06:52;99540.44;;;8.80;56.74
60871;BME280;46714;50.118;14.462;2024-03-17T12:09:23;99536.56;;;8.90;56.06
60871;BME280;46714;50.118;14.462;2024-03-17T12:11:50;99532.72;;;9.06;55.92
60871;BME280;46714;50.118;14.462;2024-03-17T12:14:24;99534.28;;;9.15;56.11
60871;BME280;46714;50.118;14.462;2024-03-17T12:16:54;99529.97;;;9.27;57.08
60871;BME280;46714;50.118;14.462;2024-03-17T12:19:21;99524.28;;;9.22;56.04
60871;BME280;46714;50.118;14.462;2024-03-17T12:21:48;99518.22;;;9.20;55.94
60871;BME280;46714;50.118;14.462;2024-03-17T12:24:19;99516.16;;;9.22;55.55
60871;BME280;46714;50.118;14.462;2024-03-17T12:26:46;99528.66;;;9.16;55.74
60871;BME280;46714;50.118;14.462;2024-03-17T12:29:31;99528.78;;;9.08;55.29
60871;BME280;46714;50.118;14.462;2024-03-17T12:32:01;99521.69;;;9.07;56.64
60871;BME280;46714;50.118;14.462;2024-03-17T12:34:33;99524.00;;;9.10;56.45
60871;BME280;46714;50.118;14.462;2024-03-17T12:36:59;99515.66;;;9.12;56.64
60871;BME280;46714;50.118;14.462;2024-03-17T12:42:02;99507.25;;;9.35;55.09
60871;BME280;46714;50.118;14.462;2024-03-17T12:44:28;99505.22;;;9.43;54.57
60871;BME280;46714;50.118;14.462;2024-03-17T12:46:58;99501.06;;;9.48;54.03
60871;BME280;46714;50.118;14.462;2024-03-17T12:49:25;99496.47;;;9.48;53.57
60871;BME280;46714;50.118;14.462;2024-03-17T12:51:52;99488.31;;;9.48;54.76
60871;BME280;46714;50.118;14.462;2024-03-17T12:54:21;99494.00;;;9.53;53.88
60871;BME280;46714;50.118;14.462;2024-03-17T12:56:49;99487.69;;;9.46;51.93
60871;BME280;46714;50.118;14.462;2024-03-17T12:59:37;99498.56;;;9.46;52.38
60871;BME280;46714;50.118;14.462;2024-03-17T13:02:25;99493.63;;;9.28;52.77
60871;BME280;46714;50.118;14.462;2024-03-17T13:07:51;99477.47;;;9.20;54.65
60871;BME280;46714;50.118;14.462;2024-03-17T13:10:19;99486.13;;;9.30;53.96
60871;BME280;46714;50.118;14.462;2024-03-17T13:12:45;99482.41;;;9.38;51.28
60871;BME280;46714;50.118;14.462;2024-03-17T13:15:13;99476.50;;;9.34;52.37
60871;BME280;46714;50.118;14.462;2024-03-17T13:17:40;99474.22;;;9.31;52.36
60871;BME280;46714;50.118;14.462;2024-03-17T13:20:07;99472.31;;;9.32;51.17
60871;BME280;46714;50.118;14.462;2024-03-17T13:22:38;99472.50;;;9.23;51.56
60871;BME280;46714;50.118;14.462;2024-03-17T13:25:05;99455.97;;;9.25;51.62
60871;BME280;46714;50.118;14.462;2024-03-17T13:27:33;99459.78;;;9.31;53.48
60871;BME280;46714;50.118;14.462;2024-03-17T13:29:59;99460.47;;;9.39;51.45
60871;BME280;46714;50.118;14.462;2024-03-17T13:32:25;99456.31;;;9.43;51.98
60871;BME280;46714;50.118;14.462;2024-03-17T13:34:51;99457.81;;;9.53;51.28
60871;BME280;46714;50.118;14.462;2024-03-17T13:37:17;99449.66;;;9.46;51.79
60871;BME280;46714;50.118;14.462;2024-03-17T13:39:42;99464.13;;;9.53;52.04
60871;BME280;46714;50.118;14.462;2024-03-17T13:42:07;99454.91;;;9.54;51.49